sensor_id;sensor_type;location;lat;lon;timestamp;P1;durP1;ratioP1;P2;durP2;ratioP2
9970;SDS011;5026;51.494;11.974;2023-12-28T00:02:19;2.03;;;1.60;;
9970;SDS011;5026;51.494;11.974;2023-12-28T00:04:47;1.60;;;1.50;;
9970;SDS011;5026;51.494;11.974;2023-12-28T00:07:14;1.97;;;1.50;;
9970;SDS011;5026;51.494;11.974;2023-12-28T00:09:41;1.87;;;1.60;;
9970;SDS011;5026;51.494;11.974;2023-12-28T00:12:08;3.17;;;1.73;;
9970;SDS011;5026;51.494;11.974;2023-12-28T00:14:35;2.57;;;1.60;;
9970;SDS011;5026;51.494;11.974;2023-12-28T00:17:02;1.53;;;1.43;;
9970;SDS011;5026;51.494;11.974;2023-12-28T00:19:29;1.77;;;1.20;;
9970;SDS011;5026;51.494;11.974;2023-12-28T00:21:58;3.13;;;1.57;;
9970;SDS011;5026;51.494;11.974;2023-12-28T00:24:25;2.57;;;1.40;;
9970;SDS011;5026;51.494;11.974;2023-12-28T00:26:52;2.10;;;1.80;;
9970;SDS011;5026;51.494;11.974;2023-12-28T00:29:19;2.07;;;1.60;;
9970;SDS011;5026;51.494;11.974;2023-12-28T00:31:46;1.63;;;1.40;;
9970;SDS011;5026;51.494;11.974;2023-12-28T00:34:13;2.90;;;2.00;;
9970;SDS011;5026;51.494;11.974;2023-12-28T00:36:39;1.87;;;1.40;;
9970;SDS011;5026;51.494;11.974;2023-12-28T00:39:08;1.93;;;1.60;;
9970;SDS011;5026;51.494;11.974;2023-12-28T00:41:35;1.50;;;1.40;;
9970;SDS011;5026;51.494;11.974;2023-12-28T00:44:02;2.40;;;1.40;;
9970;SDS011;5026;51.494;11.974;2023-12-28T00:46:30;1.50;;;1.30;;
9970;SDS011;5026;51.494;11.974;2023-12-28T00:48:57;2.00;;;1.47;;
9970;SDS011;5026;51.494;11.974;2023-12-28T00:51:24;3.53;;;1.63;;
9970;SDS011;5026;51.494;11.974;2023-12-28T00:53:51;1.60;;;1.50;;
9970;SDS011;5026;51.494;11.974;2023-12-28T00:56:19;2.20;;;1.73;;
9970;SDS011;5026;51.494;11.974;2023-12-28T00:58:46;1.97;;;1.30;;
9970;SDS011;5026;51.494;11.974;2023-12-28T01:01:13;3.03;;;1.47;;
9970;SDS011;5026;51.494;11.974;2023-12-28T01:03:40;2.30;;;1.37;;
9970;SDS011;5026;51.494;11.974;2023-12-28T01:06:07;2.67;;;1.63;;
9970;SDS011;5026;51.494;11.974;2023-12-28T01:08:34;3.07;;;1.57;;
9970;SDS011;5026;51.494;11.974;2023-12-28T01:11:01;3.53;;;1.87;;
9970;SDS011;5026;51.494;11.974;2023-12-28T01:13:29;2.37;;;1.73;;
9970;SDS011;5026;51.494;11.974;2023-12-28T01:15:56;2.10;;;1.50;;
9970;SDS011;5026;51.494;11.974;2023-12-28T01:18:23;3.30;;;1.60;;
9970;SDS011;5026;51.494;11.974;2023-12-28T01:20:50;2.40;;;1.50;;
9970;SDS011;5026;51.494;11.974;2023-12-28T01:23:17;2.70;;;1.60;;
9970;SDS011;5026;51.494;11.974;2023-12-28T01:25:44;2.27;;;1.10;;
9970;SDS011;5026;51.494;11.974;2023-12-28T01:28:11;2.53;;;1.43;;
9970;SDS011;5026;51.494;11.974;2023-12-28T01:30:39;1.80;;;1.50;;
9970;SDS011;5026;51.494;11.974;2023-12-28T01:33:06;4.83;;;2.03;;
9970;SDS011;5026;51.494;11.974;2023-12-28T01:35:33;2.93;;;1.73;;
9970;SDS011;5026;51.494;11.974;2023-12-28T01:37:59;2.20;;;1.50;;
9970;SDS011;5026;51.494;11.974;2023-12-28T01:40:26;1.87;;;1.70;;
9970;SDS011;5026;51.494;11.974;2023-12-28T01:42:53;5.13;;;1.87;;
9970;SDS011;5026;51.494;11.974;2023-12-28T01:45:20;3.10;;;1.73;;
9970;SDS011;5026;51.494;11.974;2023-12-28T01:47:49;3.07;;;1.37;;
9970;SDS011;5026;51.494;11.974;2023-12-28T01:50:18;1.80;;;1.33;;
9970;SDS011;5026;51.494;11.974;2023-12-28T01:52:45;2.47;;;1.43;;
9970;SDS011;5026;51.494;11.974;2023-12-28T01:55:13;1.73;;;1.50;;
9970;SDS011;5026;51.494;11.974;2023-12-28T01:57:40;3.00;;;1.83;;
9970;SDS011;5026;51.494;11.974;2023-12-28T02:00:07;1.50;;;1.40;;
9970;SDS011;5026;51.494;11.974;2023-12-28T02:02:35;1.87;;;1.20;;
9970;SDS011;5026;51.494;11.974;2023-12-28T02:05:04;1.50;;;1.40;;
9970;SDS011;5026;51.494;11.974;2023-12-28T02:07:31;1.73;;;1.47;;
9970;SDS011;5026;51.494;11.974;2023-12-28T02:09:59;1.50;;;1.30;;
9970;SDS011;5026;51.494;11.974;2023-12-28T02:12:26;2.17;;;1.47;;
9970;SDS011;5026;51.494;11.974;2023-12-28T02:14:53;3.30;;;1.70;;
9970;SDS011;5026;51.494;11.974;2023-12-28T02:17:20;1.40;;;1.30;;
9970;SDS011;5026;51.494;11.974;2023-12-28T02:19:51;1.30;;;1.20;;
9970;SDS011;5026;51.494;11.974;2023-12-28T02:22:23;1.53;;;1.23;;
9970;SDS011;5026;51.494;11.974;2023-12-28T02:27:38;2.40;;;1.40;;
9970;SDS011;5026;51.494;11.974;2023-12-28T02:30:06;1.27;;;1.00;;
9970;SDS011;5026;51.494;11.974;2023-12-28T02:32:39;2.80;;;1.40;;
9970;SDS011;5026;51.494;11.974;2023-12-28T02:35:17;1.60;;;1.40;;
9970;SDS011;5026;51.494;11.974;2023-12-28T02:37:48;2.43;;;1.50;;
9970;SDS011;5026;51.494;11.974;2023-12-28T02:40:19;1.80;;;1.50;;
9970;SDS011;5026;51.494;11.974;2023-12-28T02:42:47;3.87;;;2.00;;
9970;SDS011;5026;51.494;11.974;2023-12-28T02:45:14;2.03;;;1.70;;
9970;SDS011;5026;51.494;11.974;2023-12-28T02:47:41;1.60;;;1.40;;
9970;SDS011;5026;51.494;11.974;2023-12-28T02:50:09;1.63;;;1.40;;
9970;SDS011;5026;51.494;11.974;2023-12-28T02:52:36;2.63;;;1.53;;
9970;SDS011;5026;51.494;11.974;2023-12-28T02:55:03;1.37;;;1.27;;
9970;SDS011;5026;51.494;11.974;2023-12-28T02:57:32;1.73;;;1.50;;
9970;SDS011;5026;51.494;11.974;2023-12-28T03:00:02;2.07;;;1.30;;
9970;SDS011;5026;51.494;11.974;2023-12-28T03:02:31;1.60;;;1.40;;
9970;SDS011;5026;51.494;11.974;2023-12-28T03:04:58;1.93;;;1.50;;
9970;SDS011;5026;51.494;11.974;2023-12-28T03:07:25;1.73;;;1.40;;
9970;SDS011;5026;51.494;11.974;2023-12-28T03:09:52;3.63;;;1.43;;
9970;SDS011;5026;51.494;11.974;2023-12-28T03:12:19;2.10;;;1.20;;
9970;SDS011;5026;51.494;11.974;2023-12-28T03:14:47;1.80;;;1.30;;
9970;SDS011;5026;51.494;11.974;2023-12-28T03:17:14;1.43;;;1.30;;
9970;SDS011;5026;51.494;11.974;2023-12-28T03:19:41;2.93;;;1.40;;
9970;SDS011;5026;51.494;11.974;2023-12-28T03:22:08;1.67;;;1.53;;
9970;SDS011;5026;51.494;11.974;2023-12-28T03:24:36;1.63;;;1.43;;
9970;SDS011;5026;51.494;11.974;2023-12-28T03:27:03;2.33;;;1.40;;
9970;SDS011;5026;51.494;11.974;2023-12-28T03:29:30;2.60;;;1.47;;
9970;SDS011;5026;51.494;11.974;2023-12-28T03:31:59;3.80;;;2.07;;
9970;SDS011;5026;51.494;11.974;2023-12-28T03:34:26;2.00;;;1.53;;
9970;SDS011;5026;51.494;11.974;2023-12-28T03:36:55;2.47;;;1.73;;
9970;SDS011;5026;51.494;11.974;2023-12-28T03:39:22;2.43;;;1.70;;
9970;SDS011;5026;51.494;11.974;2023-12-28T03:41:50;1.73;;;1.63;;
9970;SDS011;5026;51.494;11.974;2023-12-28T03:44:18;1.87;;;1.60;;
9970;SDS011;5026;51.494;11.974;2023-12-28T03:46:45;2.97;;;2.17;;
9970;SDS011;5026;51.494;11.974;2023-12-28T03:49:16;2.23;;;1.70;;
9970;SDS011;5026;51.494;11.974;2023-12-28T03:51:43;3.53;;;2.00;;
9970;SDS011;5026;51.494;11.974;2023-12-28T03:54:09;2.17;;;1.70;;
9970;SDS011;5026;51.494;11.974;2023-12-28T03:56:36;1.67;;;1.57;;
9970;SDS011;5026;51.494;11.974;2023-12-28T03:59:05;3.33;;;1.70;;
9970;SDS011;5026;51.494;11.974;2023-12-28T04:01:32;2.20;;;1.47;;
9970;SDS011;5026;51.494;11.974;2023-12-28T04:03:59;3.90;;;1.60;;
9970;SDS011;5026;51.494;11.974;2023-12-28T04:06:27;2.20;;;1.60;;
9970;SDS011;5026;51.494;11.974;2023-12-28T04:08:54;1.40;;;1.30;;
9970;SDS011;5026;51.494;11.974;2023-12-28T04:11:21;2.07;;;1.60;;
9970;SDS011;5026;51.494;11.974;2023-12-28T04:13:48;3.10;;;1.53;;
9970;SDS011;5026;51.494;11.974;2023-12-28T04:16:15;2.70;;;1.65;;
9970;SDS011;5026;51.494;11.974;2023-12-28T04:18:42;2.37;;;1.70;;
9970;SDS011;5026;51.494;11.974;2023-12-28T04:21:11;3.47;;;1.90;;
9970;SDS011;5026;51.494;11.974;2023-12-28T04:23:40;2.60;;;1.83;;
9970;SDS011;5026;51.494;11.974;2023-12-28T04:26:08;1.70;;;1.60;;
9970;SDS011;5026;51.494;11.974;2023-12-28T04:28:35;2.23;;;1.70;;
9970;SDS011;5026;51.494;11.974;2023-12-28T04:31:02;4.70;;;1.73;;
9970;SDS011;5026;51.494;11.974;2023-12-28T04:33:30;3.40;;;1.63;;
9970;SDS011;5026;51.494;11.974;2023-12-28T04:35:57;2.17;;;1.57;;
9970;SDS011;5026;51.494;11.974;2023-12-28T04:38:26;1.67;;;1.50;;
9970;SDS011;5026;51.494;11.974;2023-12-28T04:40:54;2.80;;;1.90;;
9970;SDS011;5026;51.494;11.974;2023-12-28T04:43:21;2.00;;;1.47;;
9970;SDS011;5026;51.494;11.974;2023-12-28T04:45:49;2.57;;;1.97;;
9970;SDS011;5026;51.494;11.974;2023-12-28T04:48:16;3.43;;;1.70;;
9970;SDS011;5026;51.494;11.974;2023-12-28T04:50:45;3.17;;;2.17;;
9970;SDS011;5026;51.494;11.974;2023-12-28T04:53:13;4.10;;;2.33;;
9970;SDS011;5026;51.494;11.974;2023-12-28T04:55:40;3.73;;;1.93;;
9970;SDS011;5026;51.494;11.974;2023-12-28T04:58:08;3.33;;;1.90;;
9970;SDS011;5026;51.494;11.974;2023-12-28T05:00:36;1.70;;;1.60;;
9970;SDS011;5026;51.494;11.974;2023-12-28T05:03:03;4.95;;;2.50;;
9970;SDS011;5026;51.494;11.974;2023-12-28T05:05:30;3.40;;;2.10;;
9970;SDS011;5026;51.494;11.974;2023-12-28T05:07:57;2.03;;;1.73;;
9970;SDS011;5026;51.494;11.974;2023-12-28T05:10:24;2.17;;;1.83;;
9970;SDS011;5026;51.494;11.974;2023-12-28T05:12:52;2.67;;;1.73;;
9970;SDS011;5026;51.494;11.974;2023-12-28T05:15:20;2.33;;;2.00;;
9970;SDS011;5026;51.494;11.974;2023-12-28T05:17:47;2.90;;;1.97;;
9970;SDS011;5026;51.494;11.974;2023-12-28T05:20:15;2.17;;;1.57;;
9970;SDS011;5026;51.494;11.974;2023-12-28T05:22:42;2.77;;;1.90;;
9970;SDS011;5026;51.494;11.974;2023-12-28T05:25:09;4.87;;;1.87;;
9970;SDS011;5026;51.494;11.974;2023-12-28T05:27:36;2.43;;;1.80;;
9970;SDS011;5026;51.494;11.974;2023-12-28T05:30:03;3.10;;;1.70;;
9970;SDS011;5026;51.494;11.974;2023-12-28T05:32:32;2.17;;;1.73;;
9970;SDS011;5026;51.494;11.974;2023-12-28T05:34:59;1.70;;;1.60;;
9970;SDS011;5026;51.494;11.974;2023-12-28T05:37:26;3.83;;;2.13;;
9970;SDS011;5026;51.494;11.974;2023-12-28T05:39:53;2.03;;;1.83;;
9970;SDS011;5026;51.494;11.974;2023-12-28T05:42:20;5.03;;;2.20;;
9970;SDS011;5026;51.494;11.974;2023-12-28T05:44:47;2.83;;;2.20;;
9970;SDS011;5026;51.494;11.974;2023-12-28T05:47:14;2.70;;;2.00;;
9970;SDS011;5026;51.494;11.974;2023-12-28T05:49:42;2.20;;;2.00;;
9970;SDS011;5026;51.494;11.974;2023-12-28T05:52:09;4.30;;;2.03;;
9970;SDS011;5026;51.494;11.974;2023-12-28T05:54:36;6.63;;;3.07;;
9970;SDS011;5026;51.494;11.974;2023-12-28T05:57:03;2.20;;;2.00;;
9970;SDS011;5026;51.494;11.974;2023-12-28T05:59:30;3.60;;;2.03;;
9970;SDS011;5026;51.494;11.974;2023-12-28T06:01:57;4.43;;;2.30;;
9970;SDS011;5026;51.494;11.974;2023-12-28T06:04:24;2.97;;;2.37;;
9970;SDS011;5026;51.494;11.974;2023-12-28T06:06:53;2.10;;;1.73;;
9970;SDS011;5026;51.494;11.974;2023-12-28T06:09:20;3.57;;;2.63;;
9970;SDS011;5026;51.494;11.974;2023-12-28T06:11:47;2.97;;;2.50;;
9970;SDS011;5026;51.494;11.974;2023-12-28T06:14:14;3.23;;;2.30;;
9970;SDS011;5026;51.494;11.974;2023-12-28T06:16:41;5.27;;;2.47;;
9970;SDS011;5026;51.494;11.974;2023-12-28T06:19:08;2.40;;;2.10;;
9970;SDS011;5026;51.494;11.974;2023-12-28T06:21:37;2.87;;;2.40;;
9970;SDS011;5026;51.494;11.974;2023-12-28T06:24:06;2.37;;;2.13;;
9970;SDS011;5026;51.494;11.974;2023-12-28T06:26:32;3.63;;;2.10;;
9970;SDS011;5026;51.494;11.974;2023-12-28T06:28:59;3.27;;;2.20;;
9970;SDS011;5026;51.494;11.974;2023-12-28T06:31:26;4.60;;;2.60;;
9970;SDS011;5026;51.494;11.974;2023-12-28T06:33:53;3.40;;;2.30;;
9970;SDS011;5026;51.494;11.974;2023-12-28T06:36:20;3.33;;;2.33;;
9970;SDS011;5026;51.494;11.974;2023-12-28T06:38:47;5.63;;;2.93;;
9970;SDS011;5026;51.494;11.974;2023-12-28T06:41:15;3.13;;;2.23;;
9970;SDS011;5026;51.494;11.974;2023-12-28T06:43:42;3.67;;;2.67;;
9970;SDS011;5026;51.494;11.974;2023-12-28T06:46:09;3.33;;;2.23;;
9970;SDS011;5026;51.494;11.974;2023-12-28T06:48:36;3.20;;;2.90;;
9970;SDS011;5026;51.494;11.974;2023-12-28T06:51:05;3.93;;;2.33;;
9970;SDS011;5026;51.494;11.974;2023-12-28T06:53:32;3.73;;;2.30;;
9970;SDS011;5026;51.494;11.974;2023-12-28T06:55:59;3.43;;;2.07;;
9970;SDS011;5026;51.494;11.974;2023-12-28T06:58:27;2.60;;;2.40;;
9970;SDS011;5026;51.494;11.974;2023-12-28T07:00:54;3.10;;;2.80;;
9970;SDS011;5026;51.494;11.974;2023-12-28T07:03:22;4.40;;;2.87;;
9970;SDS011;5026;51.494;11.974;2023-12-28T07:05:50;2.90;;;2.50;;
9970;SDS011;5026;51.494;11.974;2023-12-28T07:08:17;3.17;;;2.50;;
9970;SDS011;5026;51.494;11.974;2023-12-28T07:10:44;2.67;;;2.20;;
9970;SDS011;5026;51.494;11.974;2023-12-28T07:13:11;2.77;;;2.43;;
9970;SDS011;5026;51.494;11.974;2023-12-28T07:15:39;3.00;;;2.27;;
9970;SDS011;5026;51.494;11.974;2023-12-28T07:18:06;5.50;;;2.90;;
9970;SDS011;5026;51.494;11.974;2023-12-28T07:20:33;3.17;;;2.40;;
9970;SDS011;5026;51.494;11.974;2023-12-28T07:23:00;2.73;;;2.53;;
9970;SDS011;5026;51.494;11.974;2023-12-28T07:25:28;3.77;;;2.60;;
9970;SDS011;5026;51.494;11.974;2023-12-28T07:27:55;3.17;;;2.70;;
9970;SDS011;5026;51.494;11.974;2023-12-28T07:30:22;3.53;;;2.70;;
9970;SDS011;5026;51.494;11.974;2023-12-28T07:32:50;3.50;;;2.70;;
9970;SDS011;5026;51.494;11.974;2023-12-28T07:35:17;2.80;;;2.50;;
9970;SDS011;5026;51.494;11.974;2023-12-28T07:37:44;4.60;;;3.07;;
9970;SDS011;5026;51.494;11.974;2023-12-28T07:40:11;4.53;;;3.13;;
9970;SDS011;5026;51.494;11.974;2023-12-28T07:42:39;2.97;;;2.67;;
9970;SDS011;5026;51.494;11.974;2023-12-28T07:45:06;3.00;;;2.63;;
9970;SDS011;5026;51.494;11.974;2023-12-28T07:47:33;4.77;;;3.20;;
9970;SDS011;5026;51.494;11.974;2023-12-28T07:50:01;3.67;;;2.57;;
9970;SDS011;5026;51.494;11.974;2023-12-28T07:52:29;3.10;;;2.43;;
9970;SDS011;5026;51.494;11.974;2023-12-28T07:54:56;3.13;;;2.67;;
9970;SDS011;5026;51.494;11.974;2023-12-28T07:57:23;3.50;;;2.67;;
9970;SDS011;5026;51.494;11.974;2023-12-28T07:59:50;3.27;;;2.40;;
9970;SDS011;5026;51.494;11.974;2023-12-28T08:02:17;4.43;;;2.50;;
9970;SDS011;5026;51.494;11.974;2023-12-28T08:04:44;2.27;;;2.07;;
9970;SDS011;5026;51.494;11.974;2023-12-28T08:07:12;4.77;;;2.60;;
9970;SDS011;5026;51.494;11.974;2023-12-28T08:09:39;2.43;;;2.23;;
9970;SDS011;5026;51.494;11.974;2023-12-28T08:12:06;4.13;;;2.87;;
9970;SDS011;5026;51.494;11.974;2023-12-28T08:14:33;2.73;;;2.20;;
9970;SDS011;5026;51.494;11.974;2023-12-28T08:17:00;3.50;;;3.03;;
9970;SDS011;5026;51.494;11.974;2023-12-28T08:19:27;3.27;;;2.30;;
9970;SDS011;5026;51.494;11.974;2023-12-28T08:21:54;3.70;;;2.43;;
9970;SDS011;5026;51.494;11.974;2023-12-28T08:24:22;2.80;;;2.40;;
9970;SDS011;5026;51.494;11.974;2023-12-28T08:26:49;3.27;;;2.43;;
9970;SDS011;5026;51.494;11.974;2023-12-28T08:29:16;2.73;;;2.43;;
9970;SDS011;5026;51.494;11.974;2023-12-28T08:31:43;4.33;;;3.00;;
9970;SDS011;5026;51.494;11.974;2023-12-28T08:34:10;4.23;;;2.67;;
9970;SDS011;5026;51.494;11.974;2023-12-28T08:36:37;2.83;;;2.50;;
9970;SDS011;5026;51.494;11.974;2023-12-28T08:39:04;3.77;;;2.57;;
9970;SDS011;5026;51.494;11.974;2023-12-28T08:41:32;4.20;;;2.83;;
9970;SDS011;5026;51.494;11.974;2023-12-28T08:43:59;6.10;;;2.67;;
9970;SDS011;5026;51.494;11.974;2023-12-28T08:46:26;4.23;;;2.40;;
9970;SDS011;5026;51.494;11.974;2023-12-28T08:48:53;3.57;;;2.30;;
9970;SDS011;5026;51.494;11.974;2023-12-28T08:51:21;5.77;;;2.93;;
9970;SDS011;5026;51.494;11.974;2023-12-28T08:53:48;3.73;;;2.53;;
9970;SDS011;5026;51.494;11.974;2023-12-28T08:56:20;2.57;;;2.30;;
9970;SDS011;5026;51.494;11.974;2023-12-28T08:58:49;4.53;;;2.60;;
9970;SDS011;5026;51.494;11.974;2023-12-28T09:01:17;5.27;;;2.50;;
9970;SDS011;5026;51.494;11.974;2023-12-28T09:03:47;3.60;;;2.40;;
9970;SDS011;5026;51.494;11.974;2023-12-28T09:06:14;3.00;;;2.70;;
9970;SDS011;5026;51.494;11.974;2023-12-28T09:08:41;2.93;;;2.37;;
9970;SDS011;5026;51.494;11.974;2023-12-28T09:11:09;2.53;;;2.33;;
9970;SDS011;5026;51.494;11.974;2023-12-28T09:13:37;3.07;;;2.40;;
9970;SDS011;5026;51.494;11.974;2023-12-28T09:16:07;2.43;;;2.23;;
9970;SDS011;5026;51.494;11.974;2023-12-28T09:18:36;5.13;;;3.07;;
9970;SDS011;5026;51.494;11.974;2023-12-28T09:21:04;3.87;;;2.67;;
9970;SDS011;5026;51.494;11.974;2023-12-28T09:23:31;3.00;;;2.50;;
9970;SDS011;5026;51.494;11.974;2023-12-28T09:25:58;3.17;;;2.60;;
9970;SDS011;5026;51.494;11.974;2023-12-28T09:28:26;2.77;;;2.37;;
9970;SDS011;5026;51.494;11.974;2023-12-28T09:30:53;2.80;;;2.47;;
9970;SDS011;5026;51.494;11.974;2023-12-28T09:33:21;3.13;;;2.93;;
9970;SDS011;5026;51.494;11.974;2023-12-28T09:35:49;2.73;;;2.30;;
9970;SDS011;5026;51.494;11.974;2023-12-28T09:38:16;3.93;;;3.00;;
9970;SDS011;5026;51.494;11.974;2023-12-28T09:40:43;4.33;;;3.00;;
9970;SDS011;5026;51.494;11.974;2023-12-28T09:43:12;3.57;;;3.20;;
9970;SDS011;5026;51.494;11.974;2023-12-28T09:45:45;4.00;;;2.90;;
9970;SDS011;5026;51.494;11.974;2023-12-28T09:48:14;3.33;;;3.00;;
9970;SDS011;5026;51.494;11.974;2023-12-28T09:50:44;4.70;;;3.07;;
9970;SDS011;5026;51.494;11.974;2023-12-28T09:53:12;3.23;;;2.30;;
9970;SDS011;5026;51.494;11.974;2023-12-28T09:55:39;4.50;;;2.80;;
9970;SDS011;5026;51.494;11.974;2023-12-28T09:58:05;2.80;;;2.27;;
9970;SDS011;5026;51.494;11.974;2023-12-28T10:00:32;4.27;;;2.80;;
9970;SDS011;5026;51.494;11.974;2023-12-28T10:02:59;3.63;;;2.80;;
9970;SDS011;5026;51.494;11.974;2023-12-28T10:05:28;3.07;;;2.60;;
9970;SDS011;5026;51.494;11.974;2023-12-28T10:07:56;3.20;;;2.27;;
9970;SDS011;5026;51.494;11.974;2023-12-28T10:10:23;2.60;;;2.40;;
9970;SDS011;5026;51.494;11.974;2023-12-28T10:12:50;5.53;;;2.53;;
9970;SDS011;5026;51.494;11.974;2023-12-28T10:15:17;3.67;;;3.03;;
9970;SDS011;5026;51.494;11.974;2023-12-28T10:17:45;3.93;;;2.97;;
9970;SDS011;5026;51.494;11.974;2023-12-28T10:20:12;5.60;;;2.87;;
9970;SDS011;5026;51.494;11.974;2023-12-28T10:22:40;3.27;;;2.60;;
9970;SDS011;5026;51.494;11.974;2023-12-28T10:25:09;4.00;;;2.57;;
9970;SDS011;5026;51.494;11.974;2023-12-28T10:27:39;4.30;;;2.50;;
9970;SDS011;5026;51.494;11.974;2023-12-28T10:30:08;4.77;;;2.50;;
9970;SDS011;5026;51.494;11.974;2023-12-28T10:32:36;4.57;;;2.30;;
9970;SDS011;5026;51.494;11.974;2023-12-28T10:35:06;3.10;;;2.43;;
9970;SDS011;5026;51.494;11.974;2023-12-28T10:37:33;2.97;;;2.50;;
9970;SDS011;5026;51.494;11.974;2023-12-28T10:40:05;2.60;;;2.40;;
9970;SDS011;5026;51.494;11.974;2023-12-28T10:42:41;2.80;;;2.40;;
9970;SDS011;5026;51.494;11.974;2023-12-28T10:45:15;3.15;;;2.80;;
9970;SDS011;5026;51.494;11.974;2023-12-28T10:47:47;3.90;;;2.33;;
9970;SDS011;5026;51.494;11.974;2023-12-28T10:52:50;3.97;;;2.50;;
9970;SDS011;5026;51.494;11.974;2023-12-28T10:55:25;3.20;;;2.10;;
9970;SDS011;5026;51.494;11.974;2023-12-28T10:58:03;3.03;;;2.30;;
9970;SDS011;5026;51.494;11.974;2023-12-28T11:00:39;2.70;;;2.40;;
9970;SDS011;5026;51.494;11.974;2023-12-28T11:03:14;3.13;;;2.30;;
9970;SDS011;5026;51.494;11.974;2023-12-28T11:05:47;2.40;;;2.17;;
9970;SDS011;5026;51.494;11.974;2023-12-28T11:08:14;3.73;;;2.00;;
9970;SDS011;5026;51.494;11.974;2023-12-28T11:10:44;2.40;;;1.80;;
9970;SDS011;5026;51.494;11.974;2023-12-28T11:13:13;3.47;;;1.93;;
9970;SDS011;5026;51.494;11.974;2023-12-28T11:15:41;2.70;;;1.90;;
9970;SDS011;5026;51.494;11.974;2023-12-28T11:18:09;4.17;;;2.00;;
9970;SDS011;5026;51.494;11.974;2023-12-28T11:20:36;3.40;;;2.20;;
9970;SDS011;5026;51.494;11.974;2023-12-28T11:23:04;3.07;;;2.40;;
9970;SDS011;5026;51.494;11.974;2023-12-28T11:25:33;2.63;;;2.10;;
9970;SDS011;5026;51.494;11.974;2023-12-28T11:28:07;2.37;;;2.10;;
9970;SDS011;5026;51.494;11.974;2023-12-28T11:30:35;2.40;;;2.10;;
9970;SDS011;5026;51.494;11.974;2023-12-28T11:33:02;1.90;;;1.80;;
9970;SDS011;5026;51.494;11.974;2023-12-28T11:35:34;2.47;;;1.93;;
9970;SDS011;5026;51.494;11.974;2023-12-28T11:38:02;2.20;;;2.00;;
9970;SDS011;5026;51.494;11.974;2023-12-28T11:40:39;2.57;;;1.93;;
9970;SDS011;5026;51.494;11.974;2023-12-28T11:43:15;3.73;;;2.10;;
9970;SDS011;5026;51.494;11.974;2023-12-28T11:45:48;2.33;;;1.90;;
9970;SDS011;5026;51.494;11.974;2023-12-28T11:48:23;2.20;;;1.93;;
9970;SDS011;5026;51.494;11.974;2023-12-28T11:50:53;2.17;;;1.80;;
9970;SDS011;5026;51.494;11.974;2023-12-28T11:53:22;2.53;;;1.60;;
9970;SDS011;5026;51.494;11.974;2023-12-28T11:55:49;1.90;;;1.70;;
9970;SDS011;5026;51.494;11.974;2023-12-28T11:58:18;2.67;;;1.57;;
9970;SDS011;5026;51.494;11.974;2023-12-28T12:00:45;3.90;;;1.87;;
9970;SDS011;5026;51.494;11.974;2023-12-28T12:03:13;2.50;;;2.13;;
9970;SDS011;5026;51.494;11.974;2023-12-28T12:05:40;2.92;;;1.83;;
9970;SDS011;5026;51.494;11.974;2023-12-28T12:08:08;2.90;;;1.67;;
9970;SDS011;5026;51.494;11.974;2023-12-28T12:10:38;2.57;;;1.90;;
9970;SDS011;5026;51.494;11.974;2023-12-28T12:13:05;3.57;;;1.83;;
9970;SDS011;5026;51.494;11.974;2023-12-28T12:15:34;2.87;;;1.73;;
9970;SDS011;5026;51.494;11.974;2023-12-28T12:18:01;1.63;;;1.53;;
9970;SDS011;5026;51.494;11.974;2023-12-28T12:20:29;3.40;;;1.90;;
9970;SDS011;5026;51.494;11.974;2023-12-28T12:22:57;4.03;;;1.90;;
9970;SDS011;5026;51.494;11.974;2023-12-28T12:25:25;2.67;;;1.77;;
9970;SDS011;5026;51.494;11.974;2023-12-28T12:27:52;4.37;;;2.00;;
9970;SDS011;5026;51.494;11.974;2023-12-28T12:30:19;4.57;;;1.80;;
9970;SDS011;5026;51.494;11.974;2023-12-28T12:32:48;3.30;;;1.73;;
9970;SDS011;5026;51.494;11.974;2023-12-28T12:35:15;1.83;;;1.43;;
9970;SDS011;5026;51.494;11.974;2023-12-28T12:37:46;2.07;;;1.67;;
9970;SDS011;5026;51.494;11.974;2023-12-28T12:40:14;1.55;;;1.40;;
9970;SDS011;5026;51.494;11.974;2023-12-28T12:42:46;3.10;;;1.70;;
9970;SDS011;5026;51.494;11.974;2023-12-28T12:45:18;2.20;;;1.70;;
9970;SDS011;5026;51.494;11.974;2023-12-28T12:47:46;3.93;;;1.63;;
9970;SDS011;5026;51.494;11.974;2023-12-28T12:50:15;4.20;;;1.70;;
9970;SDS011;5026;51.494;11.974;2023-12-28T12:52:43;2.07;;;1.57;;
9970;SDS011;5026;51.494;11.974;2023-12-28T12:55:10;1.80;;;1.30;;
9970;SDS011;5026;51.494;11.974;2023-12-28T12:57:38;2.07;;;1.43;;
9970;SDS011;5026;51.494;11.974;2023-12-28T13:00:06;2.60;;;1.73;;
9970;SDS011;5026;51.494;11.974;2023-12-28T13:02:35;3.67;;;1.57;;
9970;SDS011;5026;51.494;11.974;2023-12-28T13:05:05;1.57;;;1.30;;
9970;SDS011;5026;51.494;11.974;2023-12-28T13:07:33;1.57;;;1.40;;
9970;SDS011;5026;51.494;11.974;2023-12-28T13:10:00;4.45;;;1.30;;
9970;SDS011;5026;51.494;11.974;2023-12-28T13:12:27;1.43;;;1.13;;
9970;SDS011;5026;51.494;11.974;2023-12-28T13:14:54;1.37;;;1.20;;
9970;SDS011;5026;51.494;11.974;2023-12-28T13:17:21;2.53;;;1.60;;
9970;SDS011;5026;51.494;11.974;2023-12-28T13:19:49;1.80;;;1.50;;
9970;SDS011;5026;51.494;11.974;2023-12-28T13:22:17;3.00;;;1.20;;
9970;SDS011;5026;51.494;11.974;2023-12-28T13:24:44;2.60;;;1.40;;
9970;SDS011;5026;51.494;11.974;2023-12-28T13:27:11;3.03;;;1.60;;
9970;SDS011;5026;51.494;11.974;2023-12-28T13:29:39;2.63;;;1.43;;
9970;SDS011;5026;51.494;11.974;2023-12-28T13:32:06;3.93;;;1.50;;
9970;SDS011;5026;51.494;11.974;2023-12-28T13:34:33;2.80;;;1.58;;
9970;SDS011;5026;51.494;11.974;2023-12-28T13:37:00;2.07;;;1.70;;
9970;SDS011;5026;51.494;11.974;2023-12-28T13:39:29;1.40;;;1.30;;
9970;SDS011;5026;51.494;11.974;2023-12-28T13:41:56;5.33;;;1.63;;
9970;SDS011;5026;51.494;11.974;2023-12-28T13:44:23;2.25;;;1.60;;
9970;SDS011;5026;51.494;11.974;2023-12-28T13:46:50;1.60;;;1.30;;
9970;SDS011;5026;51.494;11.974;2023-12-28T14:01:36;3.80;;;1.65;;
9970;SDS011;5026;51.494;11.974;2023-12-28T14:04:03;2.77;;;1.70;;
9970;SDS011;5026;51.494;11.974;2023-12-28T14:06:31;2.97;;;1.63;;
9970;SDS011;5026;51.494;11.974;2023-12-28T14:08:58;3.93;;;1.93;;
9970;SDS011;5026;51.494;11.974;2023-12-28T14:11:25;2.23;;;1.80;;
9970;SDS011;5026;51.494;11.974;2023-12-28T14:13:53;1.90;;;1.60;;
9970;SDS011;5026;51.494;11.974;2023-12-28T14:16:20;2.10;;;1.63;;
9970;SDS011;5026;51.494;11.974;2023-12-28T14:21:14;1.50;;;1.30;;
9970;SDS011;5026;51.494;11.974;2023-12-28T14:23:41;1.57;;;1.40;;
9970;SDS011;5026;51.494;11.974;2023-12-28T14:26:10;2.73;;;1.63;;
9970;SDS011;5026;51.494;11.974;2023-12-28T14:28:39;3.23;;;1.70;;
9970;SDS011;5026;51.494;11.974;2023-12-28T14:31:08;3.37;;;2.00;;
9970;SDS011;5026;51.494;11.974;2023-12-28T14:33:36;3.17;;;1.77;;
9970;SDS011;5026;51.494;11.974;2023-12-28T14:36:05;2.67;;;1.43;;
9970;SDS011;5026;51.494;11.974;2023-12-28T14:38:43;3.83;;;2.00;;
9970;SDS011;5026;51.494;11.974;2023-12-28T14:41:10;2.90;;;2.07;;
9970;SDS011;5026;51.494;11.974;2023-12-28T14:43:37;5.07;;;1.93;;
9970;SDS011;5026;51.494;11.974;2023-12-28T14:46:04;3.83;;;2.03;;
9970;SDS011;5026;51.494;11.974;2023-12-28T14:48:32;3.50;;;1.70;;
9970;SDS011;5026;51.494;11.974;2023-12-28T14:50:59;4.60;;;2.20;;
9970;SDS011;5026;51.494;11.974;2023-12-28T14:53:26;3.83;;;1.80;;
9970;SDS011;5026;51.494;11.974;2023-12-28T14:55:53;5.25;;;1.90;;
9970;SDS011;5026;51.494;11.974;2023-12-28T14:58:20;8.60;;;2.13;;
9970;SDS011;5026;51.494;11.974;2023-12-28T15:00:47;2.60;;;2.00;;
9970;SDS011;5026;51.494;11.974;2023-12-28T15:03:14;3.70;;;2.13;;
9970;SDS011;5026;51.494;11.974;2023-12-28T15:05:42;6.35;;;2.00;;
9970;SDS011;5026;51.494;11.974;2023-12-28T15:08:10;3.00;;;2.20;;
9970;SDS011;5026;51.494;11.974;2023-12-28T15:10:37;5.83;;;1.97;;
9970;SDS011;5026;51.494;11.974;2023-12-28T15:13:04;2.37;;;2.10;;
9970;SDS011;5026;51.494;11.974;2023-12-28T15:15:32;4.03;;;1.87;;
9970;SDS011;5026;51.494;11.974;2023-12-28T15:17:59;5.73;;;2.10;;
9970;SDS011;5026;51.494;11.974;2023-12-28T15:20:27;3.90;;;1.80;;
9970;SDS011;5026;51.494;11.974;2023-12-28T15:22:56;3.67;;;1.77;;
9970;SDS011;5026;51.494;11.974;2023-12-28T15:25:24;3.20;;;2.10;;